sensor_id;sensor_type;location;lat;lon;timestamp;pressure;altitude;pressure_sealevel;temperature;humidity
10097;BME280;5087;42.662;23.466;2023-04-01T00:01:57;94530.56;;;5.62;100.00
10097;BME280;5087;42.662;23.466;2023-04-01T00:04:24;94516.78;;;5.64;100.00
10097;BME280;5087;42.662;23.466;2023-04-01T00:06:51;94528.28;;;5.78;100.00
10097;BME280;5087;42.662;23.466;2023-04-01T00:09:19;94523.56;;;5.84;100.00
10097;BME280;5087;42.662;23.466;2023-04-01T00:11:46;94537.66;;;6.04;100.00
10097;BME280;5087;42.662;23.466;2023-04-01T00:14:14;94535.66;;;6.18;100.00
10097;BME280;5087;42.662;23.466;2023-04-01T00:16:42;94537.16;;;6.24;100.00
10097;BME280;5087;42.662;23.466;2023-04-01T00:19:09;94548.75;;;6.33;100.00
10097;BME280;5087;42.662;23.466;2023-04-01T00:21:36;94547.16;;;6.32;100.00
10097;BME280;5087;42.662;23.466;2023-04-01T00:24:04;94530.28;;;6.18;100.00
10097;BME280;5087;42.662;23.466;2023-04-01T00:26:31;94522.09;;;6.23;100.00
10097;BME280;5087;42.662;23.466;2023-04-01T00:28:59;94546.38;;;6.32;100.00
10097;BME280;5087;42.662;23.466;2023-04-01T00:31:27;94542.16;;;6.40;100.00
10097;BME280;5087;42.662;23.466;2023-04-01T00:33:56;94528.66;;;6.40;100.00
10097;BME280;5087;42.662;23.466;2023-04-01T00:36:24;94525.97;;;6.40;100.00
10097;BME280;5087;42.662;23.466;2023-04-01T00:38:52;94521.88;;;6.51;100.00
10097;BME280;5087;42.662;23.466;2023-04-01T00:41:19;94521.47;;;6.75;100.00
10097;BME280;5087;42.662;23.466;2023-04-01T00:43:48;94511.16;;;6.69;100.00
10097;BME280;5087;42.662;23.466;2023-04-01T00:46:16;94509.84;;;6.57;100.00
10097;BME280;5087;42.662;23.466;2023-04-01T00:48:48;94490.13;;;6.48;100.00
10097;BME280;5087;42.662;23.466;2023-04-01T00:51:19;94509.63;;;6.85;100.00
10097;BME280;5087;42.662;23.466;2023-04-01T00:53:49;94501.03;;;6.92;100.00
10097;BME280;5087;42.662;23.466;2023-04-01T00:56:20;94485.50;;;6.89;100.00
10097;BME280;5087;42.662;23.466;2023-04-01T00:58:51;94482.00;;;6.88;100.00
10097;BME280;5087;42.662;23.466;2023-04-01T01:01:20;94496.59;;;6.87;100.00
10097;BME280;5087;42.662;23.466;2023-04-01T01:03:50;94448.75;;;6.53;100.00
10097;BME280;5087;42.662;23.466;2023-04-01T01:06:25;94477.03;;;6.73;100.00
10097;BME280;5087;42.662;23.466;2023-04-01T01:09:13;94472.59;;;6.68;100.00
10097;BME280;5087;42.662;23.466;2023-04-01T01:11:47;94462.28;;;6.61;100.00
10097;BME280;5087;42.662;23.466;2023-04-01T01:14:28;94472.13;;;6.75;100.00
10097;BME280;5087;42.662;23.466;2023-04-01T01:17:01;94455.28;;;6.60;100.00
10097;BME280;5087;42.662;23.466;2023-04-01T01:19:46;94464.97;;;6.70;100.00
10097;BME280;5087;42.662;23.466;2023-04-01T01:25:19;94451.94;;;6.55;100.00
10097;BME280;5087;42.662;23.466;2023-04-01T01:27:56;94463.53;;;6.64;100.00
10097;BME280;5087;42.662;23.466;2023-04-01T01:30:36;94448.31;;;6.59;100.00
10097;BME280;5087;42.662;23.466;2023-04-01T01:36:20;94457.22;;;6.69;100.00
10097;BME280;5087;42.662;23.466;2023-04-01T01:38:50;94451.50;;;6.61;100.00
10097;BME280;5087;42.662;23.466;2023-04-01T01:41:18;94448.78;;;6.61;100.00
10097;BME280;5087;42.662;23.466;2023-04-01T01:43:48;94434.34;;;6.57;100.00
10097;BME280;5087;42.662;23.466;2023-04-01T01:46:20;94423.72;;;6.61;100.00
10097;BME280;5087;42.662;23.466;2023-04-01T01:48:50;94413.19;;;6.42;100.00
10097;BME280;5087;42.662;23.466;2023-04-01T01:51:21;94412.59;;;6.45;100.00
10097;BME280;5087;42.662;23.466;2023-04-01T01:53:49;94424.81;;;6.51;100.00
10097;BME280;5087;42.662;23.466;2023-04-01T01:56:19;94424.78;;;6.42;100.00
10097;BME280;5087;42.662;23.466;2023-04-01T01:58:50;94422.88;;;6.43;100.00
10097;BME280;5087;42.662;23.466;2023-04-01T02:01:23;94413.88;;;6.56;100.00
10097;BME280;5087;42.662;23.466;2023-04-01T02:03:52;94395.75;;;6.30;100.00
10097;BME280;5087;42.662;23.466;2023-04-01T02:06:22;94425.41;;;6.39;100.00
10097;BME280;5087;42.662;23.466;2023-04-01T02:08:52;94418.59;;;6.33;100.00
10097;BME280;5087;42.662;23.466;2023-04-01T02:11:27;94410.66;;;6.28;100.00
10097;BME280;5087;42.662;23.466;2023-04-01T02:13:58;94413.63;;;6.26;100.00
10097;BME280;5087;42.662;23.466;2023-04-01T02:16:32;94409.50;;;6.29;100.00
10097;BME280;5087;42.662;23.466;2023-04-01T02:19:02;94392.84;;;6.18;100.00
10097;BME280;5087;42.662;23.466;2023-04-01T02:21:35;94406.03;;;6.28;100.00
10097;BME280;5087;42.662;23.466;2023-04-01T02:24:07;94399.47;;;6.12;100.00
10097;BME280;5087;42.662;23.466;2023-04-01T02:26:35;94394.38;;;6.01;100.00
10097;BME280;5087;42.662;23.466;2023-04-01T02:29:03;94402.44;;;6.01;100.00
10097;BME280;5087;42.662;23.466;2023-04-01T02:31:32;94386.78;;;6.04;100.00
10097;BME280;5087;42.662;23.466;2023-04-01T02:34:00;94391.78;;;5.96;100.00
10097;BME280;5087;42.662;23.466;2023-04-01T02:36:29;94350.03;;;5.67;100.00
10097;BME280;5087;42.662;23.466;2023-04-01T02:38:58;94396.06;;;5.89;100.00
10097;BME280;5087;42.662;23.466;2023-04-01T02:41:30;94402.88;;;5.95;100.00
10097;BME280;5087;42.662;23.466;2023-04-01T02:43:57;94383.72;;;5.96;100.00
10097;BME280;5087;42.662;23.466;2023-04-01T02:46:25;94377.63;;;5.82;100.00
10097;BME280;5087;42.662;23.466;2023-04-01T02:48:52;94386.34;;;6.19;100.00
10097;BME280;5087;42.662;23.466;2023-04-01T02:51:28;94382.59;;;6.38;100.00
10097;BME280;5087;42.662;23.466;2023-04-01T02:53:55;94398.59;;;6.34;100.00
10097;BME280;5087;42.662;23.466;2023-04-01T02:56:23;94407.84;;;6.68;100.00
10097;BME280;5087;42.662;23.466;2023-04-01T02:58:51;94401.38;;;6.95;100.00
10097;BME280;5087;42.662;23.466;2023-04-01T03:01:19;94416.78;;;6.95;100.00
10097;BME280;5087;42.662;23.466;2023-04-01T03:03:46;94415.03;;;7.08;100.00
10097;BME280;5087;42.662;23.466;2023-04-01T03:06:15;94432.66;;;6.96;100.00
10097;BME280;5087;42.662;23.466;2023-04-01T03:08:43;94407.19;;;6.54;100.00
10097;BME280;5087;42.662;23.466;2023-04-01T03:11:11;94404.19;;;6.55;100.00
10097;BME280;5087;42.662;23.466;2023-04-01T03:13:42;94394.56;;;6.80;100.00
10097;BME280;5087;42.662;23.466;2023-04-01T03:16:10;94414.06;;;7.04;100.00
10097;BME280;5087;42.662;23.466;2023-04-01T03:18:43;94421.22;;;7.17;100.00
10097;BME280;5087;42.662;23.466;2023-04-01T03:21:15;94423.13;;;7.25;100.00
10097;BME280;5087;42.662;23.466;2023-04-01T03:23:43;94425.81;;;7.25;100.00
10097;BME280;5087;42.662;23.466;2023-04-01T03:26:10;94390.88;;;7.03;100.00
10097;BME280;5087;42.662;23.466;2023-04-01T03:28:39;94426.78;;;7.12;100.00
10097;BME280;5087;42.662;23.466;2023-04-01T03:31:08;94405.66;;;6.96;100.00
10097;BME280;5087;42.662;23.466;2023-04-01T03:33:42;94432.97;;;7.21;100.00
10097;BME280;5087;42.662;23.466;2023-04-01T03:36:09;94450.13;;;7.17;100.00
10097;BME280;5087;42.662;23.466;2023-04-01T03:38:40;94421.06;;;7.05;100.00
10097;BME280;5087;42.662;23.466;2023-04-01T03:41:11;94429.78;;;7.28;100.00
10097;BME280;5087;42.662;23.466;2023-04-01T03:43:39;94432.31;;;7.42;100.00
10097;BME280;5087;42.662;23.466;2023-04-01T03:46:08;94423.59;;;7.27;100.00
10097;BME280;5087;42.662;23.466;2023-04-01T03:48:35;94419.78;;;7.46;100.00
10097;BME280;5087;42.662;23.466;2023-04-01T03:51:06;94419.41;;;7.56;100.00
10097;BME280;5087;42.662;23.466;2023-04-01T03:53:34;94411.31;;;7.56;100.00
10097;BME280;5087;42.662;23.466;2023-04-01T03:56:04;94403.06;;;7.53;100.00
10097;BME280;5087;42.662;23.466;2023-04-01T03:58:34;94401.63;;;7.55;100.00
10097;BME280;5087;42.662;23.466;2023-04-01T04:01:02;94398.56;;;7.83;100.00
10097;BME280;5087;42.662;23.466;2023-04-01T04:03:33;94378.53;;;7.84;100.00
10097;BME280;5087;42.662;23.466;2023-04-01T04:06:00;94374.03;;;7.88;100.00
10097;BME280;5087;42.662;23.466;2023-04-01T04:08:30;94347.09;;;7.71;100.00
10097;BME280;5087;42.662;23.466;2023-04-01T04:10:58;94333.56;;;7.80;100.00
10097;BME280;5087;42.662;23.466;2023-04-01T04:13:26;94336.06;;;7.85;100.00
10097;BME280;5087;42.662;23.466;2023-04-01T04:15:59;94327.47;;;7.44;100.00
10097;BME280;5087;42.662;23.466;2023-04-01T04:18:29;94313.13;;;7.05;100.00
10097;BME280;5087;42.662;23.466;2023-04-01T04:20:58;94329.31;;;6.87;100.00
10097;BME280;5087;42.662;23.466;2023-04-01T04:23:26;94314.41;;;6.81;100.00
10097;BME280;5087;42.662;23.466;2023-04-01T04:25:57;94329.00;;;6.97;100.00
10097;BME280;5087;42.662;23.466;2023-04-01T04:28:27;94294.41;;;7.00;100.00
10097;BME280;5087;42.662;23.466;2023-04-01T04:30:57;94298.34;;;7.11;100.00
10097;BME280;5087;42.662;23.466;2023-04-01T04:33:25;94278.06;;;6.96;100.00
10097;BME280;5087;42.662;23.466;2023-04-01T04:35:55;94300.88;;;7.16;100.00
10097;BME280;5087;42.662;23.466;2023-04-01T04:38:26;94296.91;;;7.22;100.00
10097;BME280;5087;42.662;23.466;2023-04-01T04:40:54;94278.00;;;7.13;100.00
10097;BME280;5087;42.662;23.466;2023-04-01T04:43:21;94280.03;;;7.25;100.00
10097;BME280;5087;42.662;23.466;2023-04-01T04:45:53;94277.03;;;7.27;100.00
10097;BME280;5087;42.662;23.466;2023-04-01T04:48:20;94259.41;;;7.29;100.00
10097;BME280;5087;42.662;23.466;2023-04-01T04:50:49;94254.63;;;7.26;100.00
10097;BME280;5087;42.662;23.466;2023-04-01T04:53:19;94249.50;;;7.42;100.00
10097;BME280;5087;42.662;23.466;2023-04-01T04:55:49;94254.72;;;7.48;100.00
10097;BME280;5087;42.662;23.466;2023-04-01T04:58:33;94261.19;;;7.55;100.00
10097;BME280;5087;42.662;23.466;2023-04-01T05:01:06;94263.88;;;7.64;100.00
10097;BME280;5087;42.662;23.466;2023-04-01T05:03:33;94228.63;;;7.60;100.00
10097;BME280;5087;42.662;23.466;2023-04-01T05:06:06;94243.84;;;7.65;100.00
10097;BME280;5087;42.662;23.466;2023-04-01T05:08:34;94245.72;;;7.95;100.00
10097;BME280;5087;42.662;23.466;2023-04-01T05:11:07;94242.97;;;8.24;100.00
10097;BME280;5087;42.662;23.466;2023-04-01T05:13:36;94231.34;;;8.54;100.00
10097;BME280;5087;42.662;23.466;2023-04-01T05:16:08;94231.38;;;8.45;100.00
10097;BME280;5087;42.662;23.466;2023-04-01T05:18:36;94235.25;;;8.35;100.00
10097;BME280;5087;42.662;23.466;2023-04-01T05:21:07;94207.91;;;8.16;100.00
10097;BME280;5087;42.662;23.466;2023-04-01T05:23:41;94197.81;;;8.25;100.00
10097;BME280;5087;42.662;23.466;2023-04-01T05:26:12;94204.50;;;8.49;100.00
10097;BME280;5087;42.662;23.466;2023-04-01T05:28:43;94198.09;;;8.32;100.00
10097;BME280;5087;42.662;23.466;2023-04-01T05:31:10;94168.91;;;8.04;100.00
10097;BME280;5087;42.662;23.466;2023-04-01T05:33:42;94211.16;;;8.51;100.00
10097;BME280;5087;42.662;23.466;2023-04-01T05:36:11;94199.22;;;8.52;100.00
10097;BME280;5087;42.662;23.466;2023-04-01T05:38:40;94194.72;;;8.57;100.00
10097;BME280;5087;42.662;23.466;2023-04-01T05:41:14;94186.84;;;8.64;100.00
10097;BME280;5087;42.662;23.466;2023-04-01T05:43:45;94187.38;;;8.91;100.00
10097;BME280;5087;42.662;23.466;2023-04-01T05:46:31;94181.78;;;9.58;100.00
10097;BME280;5087;42.662;23.466;2023-04-01T05:49:27;94188.78;;;9.22;100.00
10097;BME280;5087;42.662;23.466;2023-04-01T05:51:54;94218.81;;;9.66;100.00
10097;BME280;5087;42.662;23.466;2023-04-01T05:54:22;94177.97;;;9.34;100.00
10097;BME280;5087;42.662;23.466;2023-04-01T05:56:52;94189.34;;;9.52;100.00
10097;BME280;5087;42.662;23.466;2023-04-01T05:59:20;94188.13;;;9.74;100.00
10097;BME280;5087;42.662;23.466;2023-04-01T06:01:48;94166.66;;;9.57;100.00
10097;BME280;5087;42.662;23.466;2023-04-01T06:04:18;94159.56;;;10.18;100.00
10097;BME280;5087;42.662;23.466;2023-04-01T06:06:49;94155.56;;;10.40;100.00
10097;BME280;5087;42.662;23.466;2023-04-01T06:09:19;94151.72;;;11.01;100.00
10097;BME280;5087;42.662;23.466;2023-04-01T06:12:09;94167.09;;;11.26;100.00
10097;BME280;5087;42.662;23.466;2023-04-01T06:14:59;94167.31;;;11.52;100.00
10097;BME280;5087;42.662;23.466;2023-04-01T06:17:41;94178.50;;;11.99;100.00
10097;BME280;5087;42.662;23.466;2023-04-01T06:20:16;94187.16;;;12.40;100.00
10097;BME280;5087;42.662;23.466;2023-04-01T06:23:03;94163.16;;;11.91;100.00
10097;BME280;5087;42.662;23.466;2023-04-01T06:25:45;94118.78;;;10.87;100.00
10097;BME280;5087;42.662;23.466;2023-04-01T06:28:38;94172.41;;;11.54;100.00
10097;BME280;5087;42.662;23.466;2023-04-01T06:31:16;94155.88;;;11.79;100.00
10097;BME280;5087;42.662;23.466;2023-04-01T06:33:58;94157.63;;;11.87;100.00
10097;BME280;5087;42.662;23.466;2023-04-01T06:36:43;94179.97;;;12.12;100.00
10097;BME280;5087;42.662;23.466;2023-04-01T06:42:34;94140.25;;;12.27;100.00
10097;BME280;5087;42.662;23.466;2023-04-01T06:45:36;94137.13;;;12.68;100.00
10097;BME280;5087;42.662;23.466;2023-04-01T06:48:45;94135.69;;;12.74;100.00
10097;BME280;5087;42.662;23.466;2023-04-01T06:51:43;94096.88;;;12.58;100.00
10097;BME280;5087;42.662;23.466;2023-04-01T06:54:35;94151.06;;;13.06;100.00
10097;BME280;5087;42.662;23.466;2023-04-01T06:57:41;94141.81;;;12.91;100.00
10097;BME280;5087;42.662;23.466;2023-04-01T07:00:13;94114.66;;;12.71;100.00
10097;BME280;5087;42.662;23.466;2023-04-01T07:02:48;94097.47;;;12.90;100.00
10097;BME280;5087;42.662;23.466;2023-04-01T07:05:24;94109.22;;;13.18;100.00
10097;BME280;5087;42.662;23.466;2023-04-01T07:07:59;94120.63;;;13.27;100.00
10097;BME280;5087;42.662;23.466;2023-04-01T07:10:33;94110.38;;;13.17;100.00
10097;BME280;5087;42.662;23.466;2023-04-01T07:13:26;94099.19;;;12.56;100.00
10097;BME280;5087;42.662;23.466;2023-04-01T07:16:12;94112.53;;;12.41;100.00
10097;BME280;5087;42.662;23.466;2023-04-01T07:18:46;94101.22;;;12.39;100.00
10097;BME280;5087;42.662;23.466;2023-04-01T07:21:23;94080.81;;;12.29;100.00
10097;BME280;5087;42.662;23.466;2023-04-01T07:23:59;94064.56;;;12.33;100.00
10097;BME280;5087;42.662;23.466;2023-04-01T07:26:33;94036.53;;;12.32;100.00
10097;BME280;5087;42.662;23.466;2023-04-01T07:29:14;94066.41;;;12.72;100.00
10097;BME280;5087;42.662;23.466;2023-04-01T07:32:15;94078.81;;;12.92;100.00
10097;BME280;5087;42.662;23.466;2023-04-01T07:35:13;94086.88;;;13.08;100.00
10097;BME280;5087;42.662;23.466;2023-04-01T07:37:57;94075.22;;;13.11;100.00
10097;BME280;5087;42.662;23.466;2023-04-01T07:40:36;94070.13;;;13.33;100.00
10097;BME280;5087;42.662;23.466;2023-04-01T07:43:25;94063.06;;;13.28;100.00
10097;BME280;5087;42.662;23.466;2023-04-01T07:46:25;94062.75;;;13.34;100.00
10097;BME280;5087;42.662;23.466;2023-04-01T07:49:03;94032.25;;;13.51;93.34
10097;BME280;5087;42.662;23.466;2023-04-01T07:51:42;94059.28;;;13.90;88.75
10097;BME280;5087;42.662;23.466;2023-04-01T07:54:19;94041.53;;;13.77;86.76
10097;BME280;5087;42.662;23.466;2023-04-01T07:56:53;94042.16;;;13.93;85.51
10097;BME280;5087;42.662;23.466;2023-04-01T07:59:39;94029.78;;;14.03;82.99
10097;BME280;5087;42.662;23.466;2023-04-01T08:02:32;94056.72;;;14.39;81.69
10097;BME280;5087;42.662;23.466;2023-04-01T08:05:12;94062.25;;;14.46;89.21
10097;BME280;5087;42.662;23.466;2023-04-01T08:07:52;94065.25;;;14.34;92.26
10097;BME280;5087;42.662;23.466;2023-04-01T08:11:07;94072.38;;;14.46;93.90
10097;BME280;5087;42.662;23.466;2023-04-01T08:14:05;94060.25;;;14.39;94.60
10097;BME280;5087;42.662;23.466;2023-04-01T08:16:58;94071.34;;;14.57;91.30
10097;BME280;5087;42.662;23.466;2023-04-01T08:19:48;94059.94;;;14.48;89.22
10097;BME280;5087;42.662;23.466;2023-04-01T08:22:23;94042.81;;;14.17;88.85
10097;BME280;5087;42.662;23.466;2023-04-01T08:24:58;94041.09;;;14.02;88.15
10097;BME280;5087;42.662;23.466;2023-04-01T08:27:34;94043.16;;;14.12;88.07
10097;BME280;5087;42.662;23.466;2023-04-01T08:30:16;94042.41;;;14.15;87.21
10097;BME280;5087;42.662;23.466;2023-04-01T08:32:48;94005.44;;;13.87;87.56
10097;BME280;5087;42.662;23.466;2023-04-01T08:35:24;94029.81;;;14.41;87.64
10097;BME280;5087;42.662;23.466;2023-04-01T08:37:55;94019.63;;;14.38;85.06
10097;BME280;5087;42.662;23.466;2023-04-01T08:40:39;93996.72;;;14.46;84.89
10097;BME280;5087;42.662;23.466;2023-04-01T08:43:21;94005.81;;;14.57;86.68
10097;BME280;5087;42.662;23.466;2023-04-01T08:46:07;93986.13;;;14.41;89.07
10097;BME280;5087;42.662;23.466;2023-04-01T08:48:51;93968.69;;;14.12;92.78
10097;BME280;5087;42.662;23.466;2023-04-01T08:54:48;93971.09;;;14.17;94.25
10097;BME280;5087;42.662;23.466;2023-04-01T08:57:55;93965.41;;;14.36;95.69
10097;BME280;5087;42.662;23.466;2023-04-01T09:00:53;93967.91;;;14.52;93.84
10097;BME280;5087;42.662;23.466;2023-04-01T09:03:44;93966.03;;;14.60;92.71
10097;BME280;5087;42.662;23.466;2023-04-01T09:06:33;93966.06;;;14.64;92.12
10097;BME280;5087;42.662;23.466;2023-04-01T09:09:28;93964.19;;;14.30;95.00
10097;BME280;5087;42.662;23.466;2023-04-01T09:12:23;93977.19;;;14.40;92.41
10097;BME280;5087;42.662;23.466;2023-04-01T09:15:19;93960.94;;;14.59;90.58
10097;BME280;5087;42.662;23.466;2023-04-01T09:18:13;93951.50;;;14.52;87.66
10097;BME280;5087;42.662;23.466;2023-04-01T09:21:12;93977.19;;;14.85;85.59
10097;BME280;5087;42.662;23.466;2023-04-01T09:23:55;93973.91;;;15.17;85.65
10097;BME280;5087;42.662;23.466;2023-04-01T09:26:51;93966.34;;;15.00;85.01
10097;BME280;5087;42.662;23.466;2023-04-01T09:29:51;93961.28;;;14.98;84.34
10097;BME280;5087;42.662;23.466;2023-04-01T09:32:53;93958.13;;;14.93;85.11
10097;BME280;5087;42.662;23.466;2023-04-01T09:35:40;93947.97;;;14.90;84.26
10097;BME280;5087;42.662;23.466;2023-04-01T09:38:20;93945.59;;;14.92;85.95
10097;BME280;5087;42.662;23.466;2023-04-01T09:40:56;93919.75;;;14.75;85.43
10097;BME280;5087;42.662;23.466;2023-04-01T09:43:59;93931.00;;;14.66;88.03
10097;BME280;5087;42.662;23.466;2023-04-01T09:46:51;93897.63;;;14.42;89.08
10097;BME280;5087;42.662;23.466;2023-04-01T09:49:48;93918.00;;;14.55;88.31
10097;BME280;5087;42.662;23.466;2023-04-01T09:52:28;93934.44;;;14.63;90.21
10097;BME280;5087;42.662;23.466;2023-04-01T09:55:24;93912.88;;;14.47;90.08
10097;BME280;5087;42.662;23.466;2023-04-01T09:58:15;93921.97;;;14.65;89.92
10097;BME280;5087;42.662;23.466;2023-04-01T10:01:29;93918.94;;;14.70;88.63
10097;BME280;5087;42.662;23.466;2023-04-01T10:04:23;93888.38;;;14.57;88.98
10097;BME280;5087;42.662;23.466;2023-04-01T10:10:23;93917.13;;;14.93;88.07
10097;BME280;5087;42.662;23.466;2023-04-01T10:16:30;93896.50;;;15.02;87.43
10097;BME280;5087;42.662;23.466;2023-04-01T10:19:35;93888.72;;;15.08;87.38
10097;BME280;5087;42.662;23.466;2023-04-01T10:22:32;93883.28;;;15.15;86.62
10097;BME280;5087;42.662;23.466;2023-04-01T10:38:35;93876.66;;;15.16;86.55
10097;BME280;5087;42.662;23.466;2023-04-01T10:41:40;93869.34;;;15.35;85.46
10097;BME280;5087;42.662;23.466;2023-04-01T10:45:09;93880.22;;;15.21;86.87
10097;BME280;5087;42.662;23.466;2023-04-01T10:48:21;93839.47;;;14.94;85.81
10097;BME280;5087;42.662;23.466;2023-04-01T10:51:06;93854.72;;;14.98;86.29
10097;BME280;5087;42.662;23.466;2023-04-01T10:53:49;93841.84;;;15.06;85.19
10097;BME280;5087;42.662;23.466;2023-04-01T10:56:54;93852.53;;;15.33;84.85
10097;BME280;5087;42.662;23.466;2023-04-01T10:59:42;93833.00;;;15.31;84.37
10097;BME280;5087;42.662;23.466;2023-04-01T11:13:05;93828.88;;;14.81;84.96
10097;BME280;5087;42.662;23.466;2023-04-01T11:16:13;93831.97;;;14.83;85.07
10097;BME280;5087;42.662;23.466;2023-04-01T11:19:21;93834.72;;;14.83;85.89
10097;BME280;5087;42.662;23.466;2023-04-01T11:22:15;93808.13;;;14.73;86.05
10097;BME280;5087;42.662;23.466;2023-04-01T11:25:05;93813.84;;;14.57;87.47
10097;BME280;5087;42.662;23.466;2023-04-01T11:28:13;93819.03;;;14.69;88.00
10097;BME280;5087;42.662;23.466;2023-04-01T11:31:01;93814.44;;;14.84;87.67
10097;BME280;5087;42.662;23.466;2023-04-01T11:33:36;93816.38;;;14.80;87.58
10097;BME280;5087;42.662;23.466;2023-04-01T11:36:20;93832.13;;;15.09;86.82
10097;BME280;5087;42.662;23.466;2023-04-01T11:39:03;93828.50;;;14.90;86.43
10097;BME280;5087;42.662;23.466;2023-04-01T11:42:06;93851.09;;;14.83;85.78
10097;BME280;5087;42.662;23.466;2023-04-01T11:45:16;93880.59;;;15.26;81.24
10097;BME280;5087;42.662;23.466;2023-04-01T11:48:22;93880.22;;;15.24;79.53
10097;BME280;5087;42.662;23.466;2023-04-01T11:51:02;93894.25;;;15.23;77.81
10097;BME280;5087;42.662;23.466;2023-04-01T11:53:44;93912.78;;;14.84;83.13
10097;BME280;5087;42.662;23.466;2023-04-01T11:56:30;93976.81;;;14.08;97.07
10097;BME280;5087;42.662;23.466;2023-04-01T11:59:41;93997.13;;;13.19;100.00
10097;BME280;5087;42.662;23.466;2023-04-01T12:02:18;94054.97;;;12.62;100.00
10097;BME280;5087;42.662;23.466;2023-04-01T12:04:58;94049.41;;;11.77;100.00
10097;BME280;5087;42.662;23.466;2023-04-01T12:07:53;94104.84;;;11.20;100.00
10097;BME280;5087;42.662;23.466;2023-04-01T12:10:33;94113.19;;;10.80;100.00
10097;BME280;5087;42.662;23.466;2023-04-01T12:13:12;94064.81;;;10.37;100.00
10097;BME280;5087;42.662;23.466;2023-04-01T12:16:01;94087.94;;;10.35;100.00
10097;BME280;5087;42.662;23.466;2023-04-01T12:18:36;94066.66;;;10.21;100.00
10097;BME280;5087;42.662;23.466;2023-04-01T12:21:17;94025.31;;;9.67;100.00
10097;BME280;5087;42.662;23.466;2023-04-01T12:27:29;94028.84;;;9.43;100.00
10097;BME280;5087;42.662;23.466;2023-04-01T12:31:07;94108.69;;;10.27;100.00
10097;BME280;5087;42.662;23.466;2023-04-01T12:45:30;94106.31;;;9.97;100.00
10097;BME280;5087;42.662;23.466;2023-04-01T12:54:17;94119.91;;;9.85;100.00
10097;BME280;5087;42.662;23.466;2023-04-01T12:57:06;94101.88;;;9.52;100.00
10097;BME280;5087;42.662;23.466;2023-04-01T12:59:55;94088.56;;;9.59;100.00
10097;BME280;5087;42.662;23.466;2023-04-01T13:02:37;94104.75;;;9.84;100.00
10097;BME280;5087;42.662;23.466;2023-04-01T13:05:28;94100.25;;;9.75;100.00
10097;BME280;5087;42.662;23.466;2023-04-01T13:08:13;94106.47;;;9.76;100.00
10097;BME280;5087;42.662;23.466;2023-04-01T13:11:02;94098.47;;;9.67;100.00
10097;BME280;5087;42.662;23.466;2023-04-01T13:14:13;94071.16;;;9.60;100.00
10097;BME280;5087;42.662;23.466;2023-04-01T13:16:48;94085.47;;;9.73;100.00
10097;BME280;5087;42.662;23.466;2023-04-01T13:19:25;94069.22;;;9.73;100.00
10097;BME280;5087;42.662;23.466;2023-04-01T13:22:06;94025.22;;;9.51;100.00
10097;BME280;5087;42.662;23.466;2023-04-01T13:24:45;93989.47;;;9.74;100.00
10097;BME280;5087;42.662;23.466;2023-04-01T13:27:19;94013.88;;;10.02;100.00
10097;BME280;5087;42.662;23.466;2023-04-01T13:30:00;94008.78;;;10.01;100.00
10097;BME280;5087;42.662;23.466;2023-04-01T13:32:37;93985.13;;;10.13;100.00
10097;BME280;5087;42.662;23.466;2023-04-01T13:35:20;94011.66;;;10.36;100.00
10097;BME280;5087;42.662;23.466;2023-04-01T13:38:05;93953.59;;;9.93;100.00
10097;BME280;5087;42.662;23.466;2023-04-01T13:40:44;94022.63;;;10.11;100.00
10097;BME280;5087;42.662;23.466;2023-04-01T13:43:20;93990.22;;;9.87;100.00
10097;BME280;5087;42.662;23.466;2023-04-01T13:46:08;94013.53;;;9.75;100.00
10097;BME280;5087;42.662;23.466;2023-04-01T13:49:07;94025.25;;;9.79;100.00
10097;BME280;5087;42.662;23.466;2023-04-01T13:55:01;93979.63;;;9.81;100.00
10097;BME280;5087;42.662;23.466;2023-04-01T13:57:54;93990.28;;;10.03;100.00
10097;BME280;5087;42.662;23.466;2023-04-01T14:00:32;93987.28;;;10.08;100.00
10097;BME280;5087;42.662;23.466;2023-04-01T14:03:26;93992.63;;;10.04;100.00
10097;BME280;5087;42.662;23.466;2023-04-01T14:06:09;93997.66;;;10.18;100.00
10097;BME280;5087;42.662;23.466;2023-04-01T14:08:55;93968.50;;;10.31;100.00
10097;BME280;5087;42.662;23.466;2023-04-01T14:11:34;93975.97;;;10.66;100.00
10097;BME280;5087;42.662;23.466;2023-04-01T14:14:36;93969.00;;;11.01;100.00
10097;BME280;5087;42.662;23.466;2023-04-01T14:17:26;93920.47;;;10.64;100.00
10097;BME280;5087;42.662;23.466;2023-04-01T14:23:13;93956.13;;;10.98;100.00
10097;BME280;5087;42.662;23.466;2023-04-01T14:25:56;93937.88;;;10.79;100.00
10097;BME280;5087;42.662;23.466;2023-04-01T14:28:35;93943.06;;;11.03;100.00
10097;BME280;5087;42.662;23.466;2023-04-01T14:31:19;93868.47;;;10.97;100.00
10097;BME280;5087;42.662;23.466;2023-04-01T14:34:03;93916.53;;;11.52;100.00
10097;BME280;5087;42.662;23.466;2023-04-01T14:36:55;93919.00;;;11.61;100.00
10097;BME280;5087;42.662;23.466;2023-04-01T14:39:38;93913.50;;;11.57;100.00
10097;BME280;5087;42.662;23.466;2023-04-01T14:42:29;93899.16;;;11.56;100.00
10097;BME280;5087;42.662;23.466;2023-04-01T14:45:35;93914.84;;;11.67;100.00
10097;BME280;5087;42.662;23.466;2023-04-01T14:48:17;93901.06;;;11.76;100.00
10097;BME280;5087;42.662;23.466;2023-04-01T14:50:47;93876.53;;;11.52;100.00
10097;BME280;5087;42.662;23.466;2023-04-01T14:53:27;93909.66;;;11.58;100.00
10097;BME280;5087;42.662;23.466;2023-04-01T14:55:56;93930.97;;;11.56;100.00
10097;BME280;5087;42.662;23.466;2023-04-01T14:58:26;93926.38;;;11.21;100.00
10097;BME280;5087;42.662;23.466;2023-04-01T15:01:17;93921.66;;;11.57;100.00
10097;BME280;5087;42.662;23.466;2023-04-01T15:03:58;93891.06;;;11.21;100.00
10097;BME280;5087;42.662;23.466;2023-04-01T15:06:49;93888.47;;;10.89;100.00
10097;BME280;5087;42.662;23.466;2023-04-01T15:09:24;93938.25;;;11.13;100.00
10097;BME280;5087;42.662;23.466;2023-04-01T15:12:14;93926.50;;;11.08;100.00
10097;BME280;5087;42.662;23.466;2023-04-01T15:14:57;93881.94;;;10.74;100.00